Kalender
Terminkalender Drucken Email help
Jahresansicht Monatsansicht Wochenansicht Heute Suche Zum ausgwählten Monat wechseln
25. September 2017
Montag Dienstag Mittwoch Donnerstag Freitag Samstag Sonntag
28 29 30 31 1 2 3
4 5 6 7 8 9 10
11 12 13 14 15 16 17
18 19 20 21 22 23 24
25 26 27 28 29 30 1

JEvents v1.5.5e   Copyright © 2006-2011

Zufallsbild

Aktuelle Termine

Mo Di Mi Do Fr Sa So
28 29 30 31 1 2 3
4 5 6 7 8 9 10
11 12 13 14 15 16 17
18 19 20 21 22 23 24
25 26 27 28 29 30 1

Pilotenwetter

[source: ADDS]
METAR
EDDH 251250Z 06010KT 9999 FEW020 FEW025TCU SCT110 18/13 Q1022 NOSIG =
TAF
TAF EDDH 251100Z 2512/2618 09007KT 9999 SCT020 PROB30 TEMPO 2513/2517 4500 SHRA BKN014CB BECMG 2521/2523 BKN007 PROB30 TEMPO 2603/2607 4500 BR BECMG 2607/2609 BKN010 BECMG 2609/2611 SCT020 PROB30 TEMPO 2612/2617 4500 SHRA BKN014CB =